Estación Meteorológica Peña el Pijo (Robertgarden) [ 09/22/18 23:29:58 CEST ]

Fecha Hora Presion(HPa) Temp (°C) Humedad % Rocio (°C) Viento ( m/s) Direccion Lluvia 1Hora(mm) Lluvia 24H(mm) LLuvia Total(mm)
2018-Mar-08 01:01:49 998.700 4.6 78 1.1     0.51 0.51 119.65
2018-Mar-08 02:02:52 998.500 4.5 80 1.4     1.03 1.55 120.69
2018-Mar-08 03:03:11 997.600 4.4 82 1.6       1.55 120.69
2018-Mar-08 04:01:37 996.900 4.2 84 1.7     0.51 2.07 121.21
2018-Mar-08 05:01:34 997.100 3.8 86 1.7     2.07 4.14 123.28
2018-Mar-08 06:01:54 997.400 3.9 87 1.9     2.07 6.21 125.35
2018-Mar-08 07:01:47 997.500 4.8 88 3.0     2.07 8.28 127.42
2018-Mar-08 08:01:56 997.400 7.6 88 5.8     1.55 9.84 128.98
2018-Mar-08 09:01:51 998.700 8.4 89 6.7       9.84 128.98
2018-Mar-08 10:01:34 999.400 10.2 89 8.4     0.51 10.36 129.50
2018-Mar-08 11:01:48 999.800 12.4 83 9.6 2.4 WNW   10.36 129.50
2018-Mar-08 12:01:40 999.800 13.5 73 8.7       10.36 129.50
2018-Mar-08 13:01:44 1000.300 12.4 76 8.3       10.36 129.50
2018-Mar-08 14:01:43 1000.500 12.2 78 8.5       10.36 129.50
2018-Mar-08 15:01:48 1000.500 14.2 73 9.4       10.36 129.50
2018-Mar-08 16:01:54 1000.500 13.6 74 9.0       10.36 129.50
2018-Mar-08 17:01:47 1000.800 12.5 78 8.8       10.36 129.50
2018-Mar-08 18:01:44 1001.300 12.6 77 8.6       10.36 129.50
2018-Mar-08 19:01:42 1001.700 11.5 79 8.0       10.36 129.50
2018-Mar-08 20:02:02 1002.500 10.9 81 7.8       10.36 129.50
2018-Mar-08 21:01:55 1003.400 10.5 83 7.7       10.36 129.50
2018-Mar-08 22:01:51 1003.800 11.2 80 7.9       10.36 129.50
2018-Mar-08 23:01:48 1004.200 10.9 81 7.8       10.36 129.50

Temperatura Máxima:14°    Temperatura Mínima:
Presión Máxima:1004.200 Hpa    Presión Mínima:996.900 Hpa


Volver